createdAt,value
2017-08-14T00:00:01.338Z,1016.6
2017-08-14T00:01:03.045Z,1016.6
2017-08-14T00:02:04.769Z,1016.6
2017-08-14T00:03:07.087Z,1016.6
2017-08-14T00:04:09.425Z,1016.6
2017-08-14T00:05:11.334Z,1016.6
2017-08-14T00:06:13.093Z,1016.6
2017-08-14T00:07:15.057Z,1016.6
2017-08-14T00:08:16.774Z,1016.6
2017-08-14T00:09:18.654Z,1016.6
2017-08-14T00:10:20.402Z,1016.6
2017-08-14T00:11:22.316Z,1016.6
2017-08-14T00:12:24.060Z,1016.6
2017-08-14T00:13:25.790Z,1016.6
2017-08-14T00:14:27.842Z,1016.6
2017-08-14T00:15:29.927Z,1016.6
2017-08-14T00:16:31.656Z,1016.6
2017-08-14T00:17:33.361Z,1016.6
2017-08-14T00:18:35.068Z,1016.5
2017-08-14T00:19:36.806Z,1016.5
2017-08-14T00:20:38.511Z,1016.5
2017-08-14T00:21:40.310Z,1016.5
2017-08-14T00:22:42.168Z,1016.5
2017-08-14T00:23:44.343Z,1016.5
2017-08-14T00:24:45.989Z,1016.5
2017-08-14T00:25:47.761Z,1016.5
2017-08-14T00:26:49.476Z,1016.6
2017-08-14T00:27:51.581Z,1016.5
2017-08-14T00:28:53.304Z,1016.5
2017-08-14T00:29:55.020Z,1016.5
2017-08-14T00:30:56.675Z,1016.5
2017-08-14T00:31:58.392Z,1016.5
2017-08-14T00:33:00.179Z,1016.5
2017-08-14T00:34:01.894Z,1016.5
2017-08-14T00:35:03.713Z,1016.5
2017-08-14T00:36:05.466Z,1016.5
2017-08-14T00:37:07.203Z,1016.5
2017-08-14T00:38:08.869Z,1016.5
2017-08-14T00:39:10.697Z,1016.5
2017-08-14T00:40:12.415Z,1016.5
2017-08-14T00:41:14.135Z,1016.5
2017-08-14T00:42:15.786Z,1016.5
2017-08-14T00:43:17.445Z,1016.5
2017-08-14T00:44:19.249Z,1016.5
2017-08-14T00:45:20.893Z,1016.5
2017-08-14T00:46:22.736Z,1016.5
2017-08-14T00:47:25.610Z,1016.5
2017-08-14T00:48:27.460Z,1016.5
2017-08-14T00:49:29.106Z,1016.5
2017-08-14T00:50:30.755Z,1016.5
2017-08-14T00:51:32.568Z,1016.5
2017-08-14T00:52:35.047Z,1016.5
2017-08-14T00:53:36.638Z,1016.5
2017-08-14T00:54:38.282Z,1016.6
2017-08-14T00:55:41.130Z,1016.5
2017-08-14T00:56:43.071Z,1016.6
2017-08-14T00:57:44.716Z,1016.6
2017-08-14T00:58:46.360Z,1016.6
2017-08-14T00:59:48.003Z,1016.5
2017-08-14T01:00:49.650Z,1016.6
2017-08-14T01:01:51.301Z,1016.6
2017-08-14T01:02:53.136Z,1016.6
2017-08-14T01:03:54.785Z,1016.6
2017-08-14T01:04:56.435Z,1016.6
2017-08-14T01:05:58.084Z,1016.6
2017-08-14T01:06:59.753Z,1016.6
2017-08-14T01:08:01.496Z,1016.5
2017-08-14T01:09:03.164Z,1016.5
2017-08-14T01:10:04.888Z,1016.5
2017-08-14T01:11:06.570Z,1016.5
2017-08-14T01:12:08.270Z,1016.5
2017-08-14T01:13:09.916Z,1016.5
2017-08-14T01:14:12.606Z,1016.5
2017-08-14T01:15:14.250Z,1016.5
2017-08-14T01:16:15.983Z,1016.5
2017-08-14T01:17:17.660Z,1016.5
2017-08-14T01:18:19.382Z,1016.5
2017-08-14T01:19:21.056Z,1016.4
2017-08-14T01:20:22.702Z,1016.5
2017-08-14T01:21:24.351Z,1016.4
2017-08-14T01:22:25.992Z,1016.4
2017-08-14T01:23:27.638Z,1016.4
2017-08-14T01:24:29.285Z,1016.5
2017-08-14T01:25:30.931Z,1016.4
2017-08-14T01:26:32.603Z,1016.4
2017-08-14T01:27:34.256Z,1016.4
2017-08-14T01:28:36.089Z,1016.4
2017-08-14T01:29:37.766Z,1016.4
2017-08-14T01:30:39.407Z,1016.4
2017-08-14T01:31:41.195Z,1016.4
2017-08-14T01:32:42.848Z,1016.4
2017-08-14T01:33:44.560Z,1016.4
2017-08-14T01:34:46.234Z,1016.4
2017-08-14T01:35:47.957Z,1016.4
2017-08-14T01:36:49.612Z,1016.4
2017-08-14T01:37:51.350Z,1016.4
2017-08-14T01:38:52.998Z,1016.4
2017-08-14T01:39:54.755Z,1016.4
2017-08-14T01:40:56.408Z,1016.4
2017-08-14T01:41:58.130Z,1016.4
2017-08-14T01:42:59.814Z,1016.4
2017-08-14T01:44:01.543Z,1016.4
2017-08-14T01:45:03.193Z,1016.4
2017-08-14T01:46:04.937Z,1016.4
2017-08-14T01:47:06.574Z,1016.4
2017-08-14T01:48:08.287Z,1016.4
2017-08-14T01:49:09.949Z,1016.3
2017-08-14T01:50:11.600Z,1016.3
2017-08-14T01:51:13.255Z,1016.4
2017-08-14T01:52:14.961Z,1016.3
2017-08-14T01:53:16.618Z,1016.3
2017-08-14T01:54:18.274Z,1016.4
2017-08-14T01:55:19.938Z,1016.3
2017-08-14T01:56:21.603Z,1016.3
2017-08-14T01:57:23.278Z,1016.3
2017-08-14T01:58:24.945Z,1016.3
2017-08-14T01:59:26.587Z,1016.3
2017-08-14T02:00:28.238Z,1016.3
2017-08-14T02:01:29.919Z,1016.3
2017-08-14T02:02:31.575Z,1016.3
2017-08-14T02:03:33.219Z,1016.3
2017-08-14T02:04:34.863Z,1016.2
2017-08-14T02:05:36.528Z,1016.2
2017-08-14T02:06:38.201Z,1016.2
2017-08-14T02:07:39.883Z,1016.2
2017-08-14T02:08:41.631Z,1016.2
2017-08-14T02:09:43.279Z,1016.2
2017-08-14T02:10:44.945Z,1016.2
2017-08-14T02:11:46.609Z,1016.2
2017-08-14T02:12:48.398Z,1016.2
2017-08-14T02:13:50.041Z,1016.2
2017-08-14T02:14:51.888Z,1016.2
2017-08-14T02:15:53.532Z,1016.2
2017-08-14T02:16:55.376Z,1016.1
2017-08-14T02:17:57.021Z,1016.2
2017-08-14T02:18:58.870Z,1016.1
2017-08-14T02:20:00.550Z,1016.1
2017-08-14T02:21:02.392Z,1016.1
2017-08-14T02:22:04.076Z,1016.1
2017-08-14T02:23:05.785Z,1016.1
2017-08-14T02:24:07.432Z,1016.1
2017-08-14T02:25:09.172Z,1016.1
2017-08-14T02:26:10.818Z,1016.1
2017-08-14T02:27:12.549Z,1016.0
2017-08-14T02:28:14.204Z,1016.1
2017-08-14T02:29:15.942Z,1016.1
2017-08-14T02:30:17.601Z,1016.0
2017-08-14T02:31:19.382Z,1016.0
2017-08-14T02:32:21.090Z,1016.0
2017-08-14T02:33:22.857Z,1016.0
2017-08-14T02:34:24.511Z,1016.0
2017-08-14T02:35:26.241Z,1016.0
2017-08-14T02:36:27.903Z,1016.0
2017-08-14T02:37:29.624Z,1016.0
2017-08-14T02:38:31.288Z,1015.9
2017-08-14T02:39:33.001Z,1016.0
2017-08-14T02:40:34.688Z,1016.0
2017-08-14T02:41:36.396Z,1016.0
2017-08-14T02:42:38.046Z,1015.9
2017-08-14T02:43:39.800Z,1016.0
2017-08-14T02:44:41.449Z,1015.9
2017-08-14T02:45:43.201Z,1015.9
2017-08-14T02:46:44.835Z,1015.9
2017-08-14T02:47:46.585Z,1015.9
2017-08-14T02:48:48.232Z,1015.9
2017-08-14T02:49:49.970Z,1015.9
2017-08-14T02:50:51.628Z,1015.9
2017-08-14T02:51:53.360Z,1015.9
2017-08-14T02:52:55.021Z,1015.9
2017-08-14T02:53:56.667Z,1015.9
2017-08-14T02:54:58.410Z,1015.8
2017-08-14T02:56:00.055Z,1015.9
2017-08-14T02:57:01.792Z,1015.9
2017-08-14T02:58:03.436Z,1015.9
2017-08-14T02:59:05.203Z,1015.9
2017-08-14T03:00:06.860Z,1015.9
2017-08-14T03:01:09.598Z,1015.9
2017-08-14T03:02:11.246Z,1015.9
2017-08-14T03:03:13.010Z,1015.9
2017-08-14T03:04:14.669Z,1015.9
2017-08-14T03:05:16.330Z,1015.9
2017-08-14T03:06:18.129Z,1015.9
2017-08-14T03:07:19.810Z,1015.9
2017-08-14T03:08:21.521Z,1015.9
2017-08-14T03:09:23.166Z,1015.9
2017-08-14T03:10:24.913Z,1015.9
2017-08-14T03:11:26.558Z,1015.9
2017-08-14T03:12:28.307Z,1015.9
2017-08-14T03:13:29.953Z,1015.9
2017-08-14T03:14:31.710Z,1016.0
2017-08-14T03:15:33.355Z,1015.9
2017-08-14T03:16:35.041Z,1015.9
2017-08-14T03:17:36.738Z,1015.9
2017-08-14T03:18:38.424Z,1016.0
2017-08-14T03:19:40.134Z,1015.9
2017-08-14T03:20:41.818Z,1015.9
2017-08-14T03:21:43.556Z,1015.9
2017-08-14T03:22:45.263Z,1015.9
2017-08-14T03:23:47.026Z,1015.9
2017-08-14T03:24:48.695Z,1015.9
2017-08-14T03:25:50.348Z,1015.9
2017-08-14T03:26:51.987Z,1015.9
2017-08-14T03:27:53.702Z,1015.9
2017-08-14T03:28:55.375Z,1015.9
2017-08-14T03:29:57.031Z,1015.9
2017-08-14T03:30:58.678Z,1015.8
2017-08-14T03:32:00.328Z,1015.8
2017-08-14T03:33:01.986Z,1015.8
2017-08-14T03:34:03.675Z,1015.8
2017-08-14T03:35:05.616Z,1015.8
2017-08-14T03:36:07.398Z,1015.8
2017-08-14T03:37:09.043Z,1015.8
2017-08-14T03:38:10.793Z,1015.8
2017-08-14T03:39:12.442Z,1015.8
2017-08-14T03:40:14.162Z,1015.8
2017-08-14T03:41:15.822Z,1015.8
2017-08-14T03:42:17.569Z,1015.8
2017-08-14T03:43:19.254Z,1015.7
2017-08-14T03:44:20.970Z,1015.8
2017-08-14T03:45:22.614Z,1015.8
2017-08-14T03:46:24.337Z,1015.8
2017-08-14T03:47:25.997Z,1015.8
2017-08-14T03:48:27.766Z,1015.8
2017-08-14T03:49:29.416Z,1015.8
2017-08-14T03:50:31.130Z,1015.8
2017-08-14T03:51:32.786Z,1015.8
2017-08-14T03:52:34.442Z,1015.8
2017-08-14T03:53:36.197Z,1015.8
2017-08-14T03:54:37.877Z,1015.8
2017-08-14T03:55:39.626Z,1015.8
2017-08-14T03:56:41.286Z,1015.8
2017-08-14T03:57:43.072Z,1015.8
2017-08-14T03:58:44.731Z,1015.8
2017-08-14T03:59:46.452Z,1015.8
2017-08-14T04:00:48.104Z,1015.8
2017-08-14T04:01:49.764Z,1015.8
2017-08-14T04:02:51.529Z,1015.8
2017-08-14T04:03:53.187Z,1015.8
2017-08-14T04:04:54.979Z,1015.8
2017-08-14T04:05:56.626Z,1015.8
2017-08-14T04:06:58.272Z,1015.8
2017-08-14T04:08:00.018Z,1015.8
2017-08-14T04:09:01.686Z,1015.8
2017-08-14T04:19:12.124Z,1015.8
2017-08-14T04:20:13.766Z,1015.8
2017-08-14T04:21:15.413Z,1015.8
2017-08-14T04:22:17.060Z,1015.8
2017-08-14T04:23:18.742Z,1015.8
2017-08-14T04:24:20.408Z,1015.8
2017-08-14T04:25:22.060Z,1015.8
2017-08-14T04:26:23.712Z,1015.8
2017-08-14T04:27:25.358Z,1015.8
2017-08-14T04:28:27.007Z,1015.8
2017-08-14T04:29:28.680Z,1015.8
2017-08-14T04:30:30.325Z,1015.8
2017-08-14T04:31:32.058Z,1015.8
2017-08-14T04:32:33.695Z,1015.8
2017-08-14T04:33:35.403Z,1015.8
2017-08-14T04:34:37.058Z,1015.8
2017-08-14T04:35:38.711Z,1015.9
2017-08-14T04:36:40.351Z,1015.8
2017-08-14T04:37:42.043Z,1015.9
2017-08-14T04:38:43.763Z,1015.9
2017-08-14T04:39:45.410Z,1015.8
2017-08-14T04:40:47.073Z,1015.8
2017-08-14T04:41:48.755Z,1015.8
2017-08-14T04:42:50.407Z,1015.9
2017-08-14T04:43:52.054Z,1015.8
2017-08-14T04:44:53.706Z,1015.9
2017-08-14T04:45:55.402Z,1015.8
2017-08-14T04:46:57.220Z,1015.8
2017-08-14T04:47:58.892Z,1015.8
2017-08-14T04:49:00.541Z,1015.8
2017-08-14T04:50:02.347Z,1015.9
2017-08-14T04:51:04.003Z,1015.9
2017-08-14T04:52:05.662Z,1015.9
2017-08-14T04:53:07.308Z,1015.9
2017-08-14T04:54:08.980Z,1015.9
2017-08-14T04:55:10.684Z,1015.9
2017-08-14T04:56:12.345Z,1015.9
2017-08-14T04:57:14.014Z,1015.9
2017-08-14T04:58:15.665Z,1015.9
2017-08-14T04:59:17.328Z,1015.9
2017-08-14T05:00:18.989Z,1016.0
2017-08-14T05:01:20.639Z,1016.0
2017-08-14T05:02:22.334Z,1016.0
2017-08-14T05:03:24.148Z,1016.0
2017-08-14T05:04:25.797Z,1016.0
2017-08-14T05:05:27.556Z,1015.9
2017-08-14T05:06:29.236Z,1016.0
2017-08-14T05:07:30.891Z,1016.0
2017-08-14T05:08:32.545Z,1016.0
2017-08-14T05:09:34.225Z,1016.0
2017-08-14T05:10:35.847Z,1016.0
2017-08-14T05:11:37.491Z,1015.9
2017-08-14T05:12:39.206Z,1015.9
2017-08-14T05:13:40.854Z,1015.9
2017-08-14T05:14:42.504Z,1015.9
2017-08-14T05:15:44.297Z,1015.9
2017-08-14T05:16:45.975Z,1015.9
2017-08-14T05:17:47.800Z,1015.9
2017-08-14T05:18:49.447Z,1015.9
2017-08-14T05:19:51.188Z,1015.9
2017-08-14T05:20:52.872Z,1015.9
2017-08-14T05:21:54.520Z,1015.8
2017-08-14T05:22:56.194Z,1015.8
2017-08-14T05:23:57.848Z,1015.9
2017-08-14T05:24:59.532Z,1015.9
2017-08-14T05:26:01.359Z,1015.9
2017-08-14T05:27:03.018Z,1015.9
2017-08-14T05:28:04.749Z,1015.9
2017-08-14T05:29:06.400Z,1015.9
2017-08-14T05:30:08.054Z,1016.0
2017-08-14T05:31:09.715Z,1015.9
2017-08-14T05:32:11.359Z,1015.9
2017-08-14T05:33:13.014Z,1015.9
2017-08-14T05:34:14.672Z,1015.9
2017-08-14T05:35:16.338Z,1015.9
2017-08-14T05:36:18.038Z,1015.9
2017-08-14T05:37:19.725Z,1015.9
2017-08-14T05:38:21.381Z,1015.9
2017-08-14T05:39:24.210Z,1015.9
2017-08-14T05:40:25.866Z,1015.9
2017-08-14T05:41:27.685Z,1015.9
2017-08-14T05:42:29.332Z,1015.9
2017-08-14T05:43:31.062Z,1015.9
2017-08-14T05:44:32.721Z,1015.9
2017-08-14T05:45:34.401Z,1015.9
2017-08-14T05:46:36.239Z,1015.9
2017-08-14T05:47:37.893Z,1015.9
2017-08-14T05:48:39.702Z,1015.9
2017-08-14T05:49:41.349Z,1015.9
2017-08-14T05:50:42.995Z,1015.9
2017-08-14T05:51:44.724Z,1015.9
2017-08-14T05:52:46.488Z,1015.9
2017-08-14T05:53:48.171Z,1015.9
2017-08-14T05:54:49.985Z,1015.9
2017-08-14T05:55:51.682Z,1015.9
2017-08-14T05:56:53.490Z,1015.9
2017-08-14T05:57:55.146Z,1015.9
2017-08-14T05:58:56.978Z,1015.9
2017-08-14T05:59:58.633Z,1015.9
2017-08-14T06:01:00.512Z,1015.9
2017-08-14T06:02:02.146Z,1015.9
2017-08-14T06:03:03.796Z,1015.9
2017-08-14T06:04:05.479Z,1016.0
2017-08-14T06:05:07.130Z,1015.9
2017-08-14T06:06:08.928Z,1015.9
2017-08-14T06:07:10.614Z,1016.0
2017-08-14T06:08:12.409Z,1016.0
2017-08-14T06:09:14.061Z,1016.0
2017-08-14T06:10:17.839Z,1016.0
2017-08-14T06:11:19.543Z,1015.9
2017-08-14T06:12:21.310Z,1016.0
2017-08-14T06:13:22.982Z,1016.0
2017-08-14T06:14:24.718Z,1015.9
2017-08-14T06:15:26.361Z,1016.0
2017-08-14T06:16:28.114Z,1016.0
2017-08-14T06:17:29.774Z,1016.0
2017-08-14T06:18:31.515Z,1016.0
2017-08-14T06:19:33.175Z,1016.0
2017-08-14T06:20:34.993Z,1016.0
2017-08-14T06:21:36.662Z,1016.0
2017-08-14T06:22:38.386Z,1016.0
2017-08-14T06:23:40.036Z,1016.0
2017-08-14T06:24:41.779Z,1016.0
2017-08-14T06:25:43.433Z,1016.0
2017-08-14T06:26:45.084Z,1016.0
2017-08-14T06:27:46.739Z,1016.0
2017-08-14T06:28:48.390Z,1016.0
2017-08-14T06:29:50.033Z,1016.0
2017-08-14T06:30:51.712Z,1016.0
2017-08-14T06:31:53.375Z,1016.0
2017-08-14T06:32:55.024Z,1016.1
2017-08-14T06:33:56.791Z,1016.1
2017-08-14T06:34:58.442Z,1016.0
2017-08-14T06:36:01.613Z,1016.0
2017-08-14T06:37:04.107Z,1016.0
2017-08-14T06:38:06.199Z,1016.0
2017-08-14T06:39:07.853Z,1016.0
2017-08-14T06:40:10.669Z,1016.0
2017-08-14T06:41:12.313Z,1016.0
2017-08-14T06:47:12.512Z,1016.0
2017-08-14T07:10:48.386Z,1015.9
2017-08-14T07:11:56.933Z,1015.9
2017-08-14T07:12:58.602Z,1015.9
2017-08-14T07:14:00.247Z,1015.9
2017-08-14T07:16:12.578Z,1015.9
2017-08-14T07:17:14.302Z,1015.9
2017-08-14T07:18:27.080Z,1015.9
2017-08-14T07:19:28.729Z,1015.8
2017-08-14T07:20:35.192Z,1015.9
2017-08-14T07:21:37.421Z,1015.9
2017-08-14T07:29:49.716Z,1015.8
2017-08-14T07:30:51.462Z,1015.8
2017-08-14T07:31:53.112Z,1015.8
2017-08-14T07:32:54.860Z,1015.8
2017-08-14T07:33:56.517Z,1015.8
2017-08-14T07:34:58.244Z,1015.8
2017-08-14T07:35:59.905Z,1015.8
2017-08-14T07:37:01.660Z,1015.8
2017-08-14T07:38:03.330Z,1015.8
2017-08-14T07:39:16.850Z,1015.8
2017-08-14T07:40:18.514Z,1015.8
2017-08-14T08:46:08.681Z,1015.4
2017-08-14T08:47:16.401Z,1015.4
2017-08-14T08:48:18.221Z,1015.4
2017-08-14T08:49:21.073Z,1015.4
2017-08-14T08:50:22.848Z,1015.4
2017-08-14T08:51:24.833Z,1015.4
2017-08-14T08:52:27.415Z,1015.4
2017-08-14T08:53:29.403Z,1015.4
2017-08-14T08:54:31.075Z,1015.4
2017-08-14T08:55:32.775Z,1015.4
2017-08-14T08:56:34.457Z,1015.4
2017-08-14T08:57:36.295Z,1015.4
2017-08-14T08:58:38.026Z,1015.4
2017-08-14T08:59:40.798Z,1015.4
2017-08-14T09:00:42.564Z,1015.4
2017-08-14T09:01:44.283Z,1015.4
2017-08-14T09:02:48.149Z,1015.4
2017-08-14T09:03:49.840Z,1015.4
2017-08-14T09:04:51.626Z,1015.4
2017-08-14T09:05:53.611Z,1015.4
2017-08-14T09:06:55.394Z,1015.3
2017-08-14T09:07:57.047Z,1015.3
2017-08-14T09:08:58.785Z,1015.3
2017-08-14T09:10:00.449Z,1015.3
2017-08-14T09:11:03.558Z,1015.3
2017-08-14T09:12:05.661Z,1015.3
2017-08-14T09:13:07.461Z,1015.3
2017-08-14T09:14:09.114Z,1015.3
2017-08-14T09:15:10.917Z,1015.3
2017-08-14T09:16:12.866Z,1015.3
2017-08-14T09:17:14.810Z,1015.3
2017-08-14T09:18:16.574Z,1015.3
2017-08-14T09:19:18.250Z,1015.3
2017-08-14T09:20:19.913Z,1015.3
2017-08-14T09:21:21.722Z,1015.3
2017-08-14T09:22:23.478Z,1015.3
2017-08-14T09:23:26.368Z,1015.3
2017-08-14T09:24:28.278Z,1015.3
2017-08-14T09:25:34.099Z,1015.3
2017-08-14T09:26:35.935Z,1015.3
2017-08-14T09:27:43.254Z,1015.3
2017-08-14T09:28:44.956Z,1015.3
2017-08-14T09:29:47.764Z,1015.3
2017-08-14T09:30:49.483Z,1015.3
2017-08-14T09:31:52.365Z,1015.3
2017-08-14T09:32:54.110Z,1015.3
2017-08-14T09:33:55.896Z,1015.3
2017-08-14T09:34:57.547Z,1015.3
2017-08-14T09:35:59.281Z,1015.3
2017-08-14T09:37:00.950Z,1015.3
2017-08-14T09:38:07.285Z,1015.2
2017-08-14T09:39:09.054Z,1015.2
2017-08-14T09:40:10.747Z,1015.2
2017-08-14T09:41:12.401Z,1015.2
2017-08-14T09:42:14.593Z,1015.2
2017-08-14T09:43:16.787Z,1015.2
2017-08-14T09:44:18.632Z,1015.2
2017-08-14T09:45:20.280Z,1015.2
2017-08-14T09:46:21.958Z,1015.2
2017-08-14T09:47:23.918Z,1015.2
2017-08-14T09:48:25.861Z,1015.1
2017-08-14T09:49:27.516Z,1015.1
2017-08-14T09:50:29.265Z,1015.1
2017-08-14T09:51:30.899Z,1015.1
2017-08-14T09:52:33.956Z,1015.1
2017-08-14T09:53:35.558Z,1015.1
2017-08-14T09:54:37.312Z,1015.2
2017-08-14T09:55:39.419Z,1015.1
2017-08-14T09:56:41.640Z,1015.1
2017-08-14T09:57:43.908Z,1015.1
2017-08-14T09:58:46.419Z,1015.1
2017-08-14T09:59:48.109Z,1015.0
2017-08-14T10:00:50.633Z,1015.1
2017-08-14T10:01:52.456Z,1015.1
2017-08-14T10:02:54.146Z,1015.0
2017-08-14T10:03:55.932Z,1015.0
2017-08-14T10:04:57.768Z,1015.0
2017-08-14T10:05:59.919Z,1015.0
2017-08-14T10:07:02.374Z,1015.0
2017-08-14T10:08:03.855Z,1015.0
2017-08-14T10:09:05.778Z,1015.0
2017-08-14T10:10:07.494Z,1015.0
2017-08-14T10:11:09.255Z,1015.0
2017-08-14T10:12:11.045Z,1015.0
2017-08-14T10:13:12.768Z,1015.0
2017-08-14T10:14:14.551Z,1014.9
2017-08-14T10:15:16.327Z,1015.0
2017-08-14T10:16:18.042Z,1015.0
2017-08-14T10:17:19.771Z,1015.0
2017-08-14T10:18:21.432Z,1014.9
2017-08-14T10:19:23.269Z,1014.9
2017-08-14T10:20:25.063Z,1014.9
2017-08-14T10:21:26.994Z,1014.9
2017-08-14T10:22:29.097Z,1014.9
2017-08-14T10:23:31.542Z,1014.9
2017-08-14T10:24:33.567Z,1014.9
2017-08-14T10:25:35.314Z,1014.9
2017-08-14T10:26:39.663Z,1014.9
2017-08-14T10:27:42.639Z,1014.9
2017-08-14T10:28:46.620Z,1014.9
2017-08-14T10:29:48.319Z,1014.9
2017-08-14T10:30:54.843Z,1014.9
2017-08-14T10:31:56.497Z,1014.8
2017-08-14T10:32:58.274Z,1014.8
2017-08-14T10:34:00.012Z,1014.8
2017-08-14T10:35:02.857Z,1014.8
2017-08-14T10:36:04.627Z,1014.8
2017-08-14T10:37:06.322Z,1014.8
2017-08-14T10:38:08.728Z,1014.8
2017-08-14T10:39:21.314Z,1014.8
2017-08-14T10:40:23.050Z,1014.8
2017-08-14T10:41:24.771Z,1014.9
2017-08-14T10:42:26.554Z,1014.9
2017-08-14T10:43:33.367Z,1014.8
2017-08-14T10:44:35.070Z,1014.8
2017-08-14T10:45:43.799Z,1014.8
2017-08-14T10:46:45.615Z,1014.7
2017-08-14T10:47:58.390Z,1014.8
2017-08-14T10:49:00.080Z,1014.7
2017-08-14T10:50:08.804Z,1014.7
2017-08-14T10:51:10.732Z,1014.7
2017-08-14T10:52:12.505Z,1014.7
2017-08-14T10:53:14.139Z,1014.7
2017-08-14T10:54:16.932Z,1014.7
2017-08-14T10:55:18.655Z,1014.7
2017-08-14T10:56:21.477Z,1014.6
2017-08-14T10:57:23.223Z,1014.6
2017-08-14T10:58:25.095Z,1014.6
2017-08-14T10:59:26.815Z,1014.6
2017-08-14T11:00:29.559Z,1014.6
2017-08-14T11:01:31.326Z,1014.5
2017-08-14T11:02:34.012Z,1014.5
2017-08-14T11:03:35.758Z,1014.5
2017-08-14T11:04:44.270Z,1014.6
2017-08-14T11:05:46.036Z,1014.5
2017-08-14T11:06:49.794Z,1014.5
2017-08-14T11:07:51.507Z,1014.5
2017-08-14T11:08:53.289Z,1014.4
2017-08-14T11:09:55.053Z,1014.5
2017-08-14T11:10:56.948Z,1014.5
2017-08-14T11:11:58.698Z,1014.5
2017-08-14T11:13:01.500Z,1014.4
2017-08-14T11:14:03.220Z,1014.4
2017-08-14T11:15:07.059Z,1014.4
2017-08-14T11:16:09.311Z,1014.4
2017-08-14T11:17:12.118Z,1014.3
2017-08-14T11:18:13.839Z,1014.4
2017-08-14T11:19:21.442Z,1014.4
2017-08-14T11:20:23.134Z,1014.3
2017-08-14T11:21:24.824Z,1014.4
2017-08-14T11:22:26.594Z,1014.3
2017-08-14T11:23:39.347Z,1014.4
2017-08-14T11:24:41.075Z,1014.4
2017-08-14T11:25:42.835Z,1014.3
2017-08-14T11:26:44.582Z,1014.4
2017-08-14T11:27:47.353Z,1014.3
2017-08-14T11:28:49.079Z,1014.3
2017-08-14T11:29:51.931Z,1014.3
2017-08-14T11:30:53.759Z,1014.3
2017-08-14T11:31:57.620Z,1014.3
2017-08-14T11:32:59.339Z,1014.3
2017-08-14T11:34:03.331Z,1014.3
2017-08-14T11:35:05.094Z,1014.3
2017-08-14T11:36:06.936Z,1014.2
2017-08-14T11:37:08.698Z,1014.2
2017-08-14T11:38:10.531Z,1014.2
2017-08-14T11:39:12.281Z,1014.2
2017-08-14T11:40:14.275Z,1014.2
2017-08-14T11:41:16.955Z,1014.2
2017-08-14T11:42:18.749Z,1014.1
2017-08-14T11:43:20.520Z,1014.2
2017-08-14T11:44:22.337Z,1014.2
2017-08-14T11:45:24.109Z,1014.1
2017-08-14T11:46:25.860Z,1014.1
2017-08-14T11:47:27.523Z,1014.1
2017-08-14T11:48:29.263Z,1014.1
2017-08-14T11:49:31.179Z,1014.1
2017-08-14T11:50:32.957Z,1014.2
2017-08-14T11:51:34.674Z,1014.2
2017-08-14T11:52:36.468Z,1014.1
2017-08-14T11:53:38.196Z,1014.1
2017-08-14T11:54:40.192Z,1014.2
2017-08-14T11:55:42.072Z,1014.1
2017-08-14T11:56:44.028Z,1014.1
2017-08-14T11:57:45.808Z,1014.0
2017-08-14T11:58:47.559Z,1014.1
2017-08-14T11:59:49.281Z,1014.0
2017-08-14T12:00:51.017Z,1014.0
2017-08-14T12:01:52.691Z,1014.0
2017-08-14T12:02:54.738Z,1014.0
2017-08-14T12:03:57.346Z,1013.9
2017-08-14T12:05:01.107Z,1014.0
2017-08-14T12:06:02.822Z,1014.0
2017-08-14T12:07:06.715Z,1014.0
2017-08-14T12:08:08.445Z,1013.9
2017-08-14T12:09:11.288Z,1013.9
2017-08-14T12:10:13.008Z,1013.9
2017-08-14T12:11:14.939Z,1013.9
2017-08-14T12:12:16.725Z,1013.9
2017-08-14T12:13:18.413Z,1014.0
2017-08-14T12:14:20.215Z,1013.9
2017-08-14T12:15:22.025Z,1013.9
2017-08-14T12:16:23.836Z,1013.9
2017-08-14T12:17:25.593Z,1013.8
2017-08-14T12:18:27.458Z,1013.9
2017-08-14T12:19:29.146Z,1013.9
2017-08-14T12:20:31.014Z,1013.9
2017-08-14T12:21:32.673Z,1013.9
2017-08-14T12:22:34.508Z,1013.9
2017-08-14T12:23:36.232Z,1013.8
2017-08-14T12:24:39.116Z,1013.8
2017-08-14T12:25:40.841Z,1013.8
2017-08-14T12:26:53.412Z,1013.8
2017-08-14T12:27:55.145Z,1013.8
2017-08-14T12:29:08.750Z,1013.8
2017-08-14T12:30:10.489Z,1013.8
2017-08-14T12:31:12.299Z,1013.8
2017-08-14T12:32:14.109Z,1013.8
2017-08-14T12:33:15.856Z,1013.7
2017-08-14T12:34:17.679Z,1013.8
2017-08-14T12:35:19.455Z,1013.7
2017-08-14T12:36:21.879Z,1013.8
2017-08-14T12:37:23.643Z,1013.8
2017-08-14T12:38:25.461Z,1013.7
2017-08-14T12:39:27.181Z,1013.7
2017-08-14T12:40:30.947Z,1013.7
2017-08-14T12:41:32.740Z,1013.7
2017-08-14T12:42:39.401Z,1013.7
2017-08-14T12:43:41.300Z,1013.7
2017-08-14T12:44:43.050Z,1013.6
2017-08-14T12:45:50.390Z,1013.6
2017-08-14T12:46:52.234Z,1013.6
2017-08-14T12:47:55.020Z,1013.7
2017-08-14T12:48:56.863Z,1013.6
2017-08-14T12:49:59.626Z,1013.7
2017-08-14T12:51:01.482Z,1013.7
2017-08-14T12:52:03.138Z,1013.7
2017-08-14T12:53:04.973Z,1013.7
2017-08-14T12:54:06.706Z,1013.7
2017-08-14T12:55:09.513Z,1013.7
2017-08-14T12:56:18.003Z,1013.7
2017-08-14T12:57:19.748Z,1013.6
2017-08-14T12:58:22.127Z,1013.6
2017-08-14T12:59:25.891Z,1013.6
2017-08-14T13:00:27.752Z,1013.6
2017-08-14T13:01:29.523Z,1013.7
2017-08-14T13:02:31.175Z,1013.6
2017-08-14T13:03:32.937Z,1013.6
2017-08-14T13:04:34.657Z,1013.6
2017-08-14T13:05:36.384Z,1013.6
2017-08-14T13:06:38.275Z,1013.6
2017-08-14T13:07:40.028Z,1013.6
2017-08-14T13:08:41.896Z,1013.5
2017-08-14T13:09:43.583Z,1013.5
2017-08-14T13:10:45.331Z,1013.5
2017-08-14T13:11:47.097Z,1013.5
2017-08-14T13:12:48.871Z,1013.5
2017-08-14T13:13:50.632Z,1013.5
2017-08-14T13:14:52.379Z,1013.5
2017-08-14T13:15:54.161Z,1013.5
2017-08-14T13:16:55.860Z,1013.5
2017-08-14T13:17:57.633Z,1013.5
2017-08-14T13:18:59.467Z,1013.5
2017-08-14T13:20:01.242Z,1013.5
2017-08-14T13:21:02.966Z,1013.5
2017-08-14T13:22:04.708Z,1013.5
2017-08-14T13:23:06.464Z,1013.5
2017-08-14T13:24:08.210Z,1013.5
2017-08-14T13:25:09.899Z,1013.4
2017-08-14T13:26:11.624Z,1013.4
2017-08-14T13:27:13.361Z,1013.4
2017-08-14T13:28:15.149Z,1013.4
2017-08-14T13:29:18.959Z,1013.4
2017-08-14T13:30:20.698Z,1013.4
2017-08-14T13:31:22.442Z,1013.4
2017-08-14T13:32:24.111Z,1013.4
2017-08-14T13:33:25.905Z,1013.4
2017-08-14T13:34:28.085Z,1013.4
2017-08-14T13:35:29.834Z,1013.3
2017-08-14T13:36:31.677Z,1013.3
2017-08-14T13:37:33.399Z,1013.3
2017-08-14T13:38:35.109Z,1013.2
2017-08-14T13:39:36.935Z,1013.3
2017-08-14T13:40:38.798Z,1013.2
2017-08-14T13:41:40.481Z,1013.2
2017-08-14T13:42:43.316Z,1013.2
2017-08-14T13:43:46.745Z,1013.2
2017-08-14T13:44:48.508Z,1013.2
2017-08-14T13:45:53.935Z,1013.2
2017-08-14T13:46:55.625Z,1013.2
2017-08-14T13:47:57.353Z,1013.2
2017-08-14T13:49:01.983Z,1013.2
2017-08-14T13:50:06.224Z,1013.1
2017-08-14T13:51:07.941Z,1013.1
2017-08-14T13:52:09.686Z,1013.1
2017-08-14T13:53:12.661Z,1013.1
2017-08-14T13:54:16.611Z,1013.1
2017-08-14T13:55:21.645Z,1013.1
2017-08-14T13:56:25.942Z,1013.1
2017-08-14T13:57:29.276Z,1013.1
2017-08-14T13:58:31.038Z,1013.1
2017-08-14T13:59:32.899Z,1013.1
2017-08-14T14:00:34.609Z,1013.1
2017-08-14T14:01:36.500Z,1013.1
2017-08-14T14:02:38.289Z,1013.1
2017-08-14T14:03:40.049Z,1013.0
2017-08-14T14:04:41.790Z,1013.1
2017-08-14T14:05:43.586Z,1013.0
2017-08-14T14:06:46.663Z,1013.0
2017-08-14T14:07:48.482Z,1013.0
2017-08-14T14:08:50.211Z,1013.0
2017-08-14T14:09:51.995Z,1013.0
2017-08-14T14:10:53.708Z,1013.0
2017-08-14T14:11:55.474Z,1012.9
2017-08-14T14:12:57.176Z,1012.9
2017-08-14T14:13:59.054Z,1012.9
2017-08-14T14:15:00.745Z,1012.9
2017-08-14T14:16:02.497Z,1012.9
2017-08-14T14:17:04.246Z,1012.8
2017-08-14T14:18:05.972Z,1012.9
2017-08-14T14:19:07.672Z,1012.9
2017-08-14T14:20:10.445Z,1012.8
2017-08-14T14:21:12.154Z,1012.8
2017-08-14T14:22:13.983Z,1012.8
2017-08-14T14:23:15.689Z,1012.8
2017-08-14T14:24:17.442Z,1012.8
2017-08-14T14:25:19.098Z,1012.8
2017-08-14T14:26:22.893Z,1012.8
2017-08-14T14:27:24.627Z,1012.8
2017-08-14T14:28:26.451Z,1012.7
2017-08-14T14:29:28.161Z,1012.8
2017-08-14T14:30:29.813Z,1012.7
2017-08-14T14:31:31.664Z,1012.7
2017-08-14T14:32:33.384Z,1012.7
2017-08-14T14:33:35.226Z,1012.7
2017-08-14T14:34:36.962Z,1012.7
2017-08-14T14:35:39.278Z,1012.7
2017-08-14T14:36:41.002Z,1012.7
2017-08-14T14:37:42.865Z,1012.7
2017-08-14T14:38:44.581Z,1012.7
2017-08-14T14:39:46.426Z,1012.7
2017-08-14T14:40:48.253Z,1012.7
2017-08-14T14:41:50.011Z,1012.6
2017-08-14T14:42:52.074Z,1012.6
2017-08-14T14:43:54.774Z,1012.6